createdAt,value
2022-08-03T00:01:23.327Z,7.18
2022-08-03T00:03:49.878Z,7.07
2022-08-03T00:06:17.803Z,6.67
2022-08-03T00:08:44.337Z,9.32
2022-08-03T00:11:10.983Z,7.25
2022-08-03T00:13:37.566Z,6.65
2022-08-03T00:16:04.660Z,6.50
2022-08-03T00:18:31.355Z,6.80
2022-08-03T00:20:57.897Z,6.80
2022-08-03T00:23:28.414Z,7.13
2022-08-03T00:25:58.342Z,6.38
2022-08-03T00:28:24.944Z,6.10
2022-08-03T00:30:53.618Z,6.80
2022-08-03T00:33:20.570Z,7.05
2022-08-03T00:35:51.041Z,7.87
2022-08-03T00:38:18.049Z,7.10
2022-08-03T00:40:46.622Z,8.40
2022-08-03T00:43:13.195Z,6.80
2022-08-03T00:45:41.471Z,6.90
2022-08-03T00:48:29.660Z,8.37
2022-08-03T00:50:58.312Z,8.10
2022-08-03T00:53:25.516Z,7.55
2022-08-03T00:55:53.451Z,6.40
2022-08-03T00:58:20.030Z,7.60
2022-08-03T01:00:46.670Z,7.95
2022-08-03T01:03:13.240Z,6.23
2022-08-03T01:05:47.419Z,8.43
2022-08-03T01:08:22.551Z,8.80
2022-08-03T01:11:00.993Z,6.57
2022-08-03T01:14:03.800Z,7.72
2022-08-03T01:16:36.949Z,7.15
2022-08-03T01:19:19.749Z,7.23
2022-08-03T01:21:59.613Z,6.97
2022-08-03T01:24:35.131Z,8.48
2022-08-03T01:27:12.692Z,7.13
2022-08-03T01:30:01.615Z,6.97
2022-08-03T01:32:53.660Z,7.95
2022-08-03T01:35:27.643Z,7.85
2022-08-03T01:37:58.207Z,6.60
2022-08-03T01:40:27.182Z,6.90
2022-08-03T01:42:55.736Z,7.50
2022-08-03T01:45:25.062Z,7.38
2022-08-03T01:47:54.025Z,7.55
2022-08-03T01:50:24.583Z,8.93
2022-08-03T01:52:53.635Z,7.27
2022-08-03T01:55:22.499Z,8.98
2022-08-03T01:58:05.893Z,9.65
2022-08-03T02:00:36.432Z,7.03
2022-08-03T02:03:05.692Z,6.70
2022-08-03T02:05:33.234Z,7.47
2022-08-03T02:08:01.756Z,6.77
2022-08-03T02:10:34.530Z,8.70
2022-08-03T02:13:04.937Z,6.80
2022-08-03T02:15:35.712Z,6.85
2022-08-03T02:18:04.833Z,7.43
2022-08-03T02:20:33.508Z,7.13
2022-08-03T02:23:00.159Z,7.37
2022-08-03T02:25:27.924Z,9.27
2022-08-03T02:27:59.060Z,7.40
2022-08-03T02:30:30.884Z,7.88
2022-08-03T02:33:00.703Z,8.55
2022-08-03T02:35:30.557Z,8.33
2022-08-03T02:38:00.969Z,7.07
2022-08-03T02:40:29.311Z,7.55
2022-08-03T02:42:59.954Z,6.88
2022-08-03T02:45:29.413Z,8.00
2022-08-03T02:48:00.806Z,10.32
2022-08-03T02:50:29.426Z,7.82
2022-08-03T02:52:58.293Z,8.53
2022-08-03T02:55:26.277Z,7.43
2022-08-03T02:57:54.190Z,6.40
2022-08-03T03:00:28.045Z,7.22
2022-08-03T03:02:57.758Z,7.57
2022-08-03T03:05:53.458Z,8.05
2022-08-03T03:08:18.759Z,7.43
2022-08-03T03:10:48.342Z,7.13
2022-08-03T03:13:22.155Z,7.70
2022-08-03T03:15:49.658Z,6.90
2022-08-03T03:18:22.051Z,8.40
2022-08-03T03:20:52.794Z,8.02
2022-08-03T03:23:21.595Z,7.60
2022-08-03T03:25:48.849Z,7.45
2022-08-03T03:28:15.685Z,6.95
2022-08-03T03:30:42.810Z,8.07
2022-08-03T03:33:09.631Z,8.88
2022-08-03T03:35:38.725Z,7.10
2022-08-03T03:38:07.354Z,8.73
2022-08-03T03:40:35.451Z,8.20
2022-08-03T03:43:02.507Z,7.20
2022-08-03T03:45:30.928Z,7.38
2022-08-03T03:47:59.834Z,8.43
2022-08-03T03:50:27.257Z,7.72
2022-08-03T03:52:53.943Z,7.60
2022-08-03T03:55:22.200Z,7.10
2022-08-03T03:57:48.751Z,7.85
2022-08-03T04:00:17.631Z,7.15
2022-08-03T04:02:44.317Z,7.00
2022-08-03T04:05:10.878Z,8.10
2022-08-03T04:07:48.580Z,7.87
2022-08-03T04:10:18.497Z,7.20
2022-08-03T04:12:50.412Z,7.63
2022-08-03T04:15:20.775Z,8.75
2022-08-03T04:17:49.061Z,8.50
2022-08-03T04:20:18.754Z,7.95
2022-08-03T04:22:47.926Z,7.50
2022-08-03T04:25:17.759Z,8.43
2022-08-03T04:27:47.439Z,8.40
2022-08-03T04:30:37.510Z,9.23
2022-08-03T04:33:04.528Z,8.65
2022-08-03T04:36:02.001Z,12.38
2022-08-03T04:38:24.723Z,12.07
2022-08-03T04:40:53.704Z,12.07
2022-08-03T04:43:22.933Z,9.60
2022-08-03T04:45:51.108Z,9.00
2022-08-03T04:48:18.698Z,8.32
2022-08-03T04:50:46.500Z,8.60
2022-08-03T04:53:13.063Z,8.87
2022-08-03T04:55:39.785Z,8.13
2022-08-03T04:58:06.330Z,7.95
2022-08-03T05:00:35.270Z,11.68
2022-08-03T05:03:01.906Z,8.25
2022-08-03T05:05:48.955Z,8.02
2022-08-03T05:08:15.045Z,8.63
2022-08-03T05:10:41.603Z,8.47
2022-08-03T05:13:08.122Z,8.68
2022-08-03T05:15:36.129Z,8.27
2022-08-03T05:18:13.856Z,9.30
2022-08-03T05:20:41.202Z,10.43
2022-08-03T05:23:07.829Z,8.35
2022-08-03T05:25:34.392Z,8.20
2022-08-03T05:28:00.973Z,7.65
2022-08-03T05:30:33.178Z,9.45
2022-08-03T05:33:03.499Z,8.32
2022-08-03T05:36:02.211Z,8.18
2022-08-03T05:38:23.755Z,7.97
2022-08-03T05:40:57.477Z,8.63
2022-08-03T05:43:41.538Z,7.53
2022-08-03T05:46:12.190Z,6.80
2022-08-03T05:48:40.970Z,7.78
2022-08-03T05:51:08.133Z,6.65
2022-08-03T05:53:35.217Z,7.07
2022-08-03T05:56:13.034Z,6.70
2022-08-03T05:58:41.739Z,7.30
2022-08-03T06:01:08.482Z,8.25
2022-08-03T06:03:35.167Z,6.85
2022-08-03T06:06:03.143Z,6.70
2022-08-03T06:08:29.718Z,7.38
2022-08-03T06:10:56.280Z,6.07
2022-08-03T06:13:22.834Z,5.60
2022-08-03T06:15:49.413Z,7.30
2022-08-03T06:18:15.984Z,7.15
2022-08-03T06:20:42.579Z,7.20
2022-08-03T06:23:16.257Z,5.82
2022-08-03T06:25:44.988Z,7.63
2022-08-03T06:28:35.325Z,7.50
2022-08-03T06:30:59.249Z,6.07
2022-08-03T06:33:25.802Z,6.38
2022-08-03T06:36:12.337Z,6.65
2022-08-03T06:38:40.253Z,6.20
2022-08-03T06:41:06.815Z,6.73
2022-08-03T06:43:35.893Z,10.27
2022-08-03T06:46:02.776Z,6.18
2022-08-03T06:48:29.335Z,6.78
2022-08-03T06:50:55.924Z,6.70
2022-08-03T06:53:32.294Z,7.03
2022-08-03T06:56:00.220Z,6.77
2022-08-03T06:58:26.924Z,7.83
2022-08-03T07:00:53.484Z,8.45
2022-08-03T07:03:20.008Z,7.82
2022-08-03T07:05:46.609Z,7.30
2022-08-03T07:08:13.410Z,6.55
2022-08-03T07:10:40.121Z,8.27
2022-08-03T07:13:08.123Z,7.63
2022-08-03T07:15:55.716Z,7.65
2022-08-03T07:18:24.638Z,6.50
2022-08-03T07:20:56.289Z,7.38
2022-08-03T07:23:22.854Z,6.38
2022-08-03T07:25:49.407Z,7.13
2022-08-03T07:28:17.380Z,6.77
2022-08-03T07:30:43.920Z,5.88
2022-08-03T07:33:10.478Z,5.85
2022-08-03T07:35:37.285Z,6.05
2022-08-03T07:38:03.838Z,7.47
2022-08-03T07:40:31.536Z,5.03
2022-08-03T07:42:58.586Z,6.37
2022-08-03T07:45:26.781Z,6.53
2022-08-03T07:47:54.550Z,7.22
2022-08-03T07:50:22.313Z,6.15
2022-08-03T07:52:50.102Z,6.40
2022-08-03T07:55:39.100Z,6.67
2022-08-03T07:58:07.938Z,6.60
2022-08-03T08:00:36.403Z,6.38
2022-08-03T08:03:03.876Z,6.10
2022-08-03T08:05:30.548Z,5.93
2022-08-03T08:07:57.127Z,7.37
2022-08-03T08:10:24.022Z,6.57
2022-08-03T08:12:50.610Z,5.75
2022-08-03T08:15:17.184Z,6.38
2022-08-03T08:17:48.039Z,6.25
2022-08-03T08:20:28.115Z,6.00
2022-08-03T08:22:58.259Z,7.57
2022-08-03T08:25:28.291Z,7.30
2022-08-03T08:28:29.706Z,7.13
2022-08-03T08:30:41.526Z,6.25
2022-08-03T08:33:22.314Z,5.73
2022-08-03T08:35:49.434Z,5.72
2022-08-03T08:38:16.009Z,6.05
2022-08-03T08:40:42.788Z,6.50
2022-08-03T08:43:09.320Z,6.68
2022-08-03T08:45:36.350Z,6.93
2022-08-03T08:48:07.853Z,4.80
2022-08-03T08:50:38.681Z,5.10
2022-08-03T08:53:09.883Z,5.00
2022-08-03T08:55:58.949Z,4.95
2022-08-03T08:58:28.532Z,5.63
2022-08-03T09:00:55.442Z,4.60
2022-08-03T09:03:29.386Z,5.10
2022-08-03T09:05:59.701Z,4.78
2022-08-03T09:08:26.359Z,5.05
2022-08-03T09:10:52.933Z,4.70
2022-08-03T09:13:19.628Z,5.60
2022-08-03T09:16:01.206Z,5.20
2022-08-03T09:18:32.213Z,5.88
2022-08-03T09:21:30.178Z,5.97
2022-08-03T09:24:04.432Z,6.67
2022-08-03T09:26:33.383Z,5.18
2022-08-03T09:29:07.125Z,7.60
2022-08-03T09:31:43.245Z,5.18
2022-08-03T09:34:12.238Z,4.75
2022-08-03T09:36:41.833Z,5.17
2022-08-03T09:39:09.923Z,7.38
2022-08-03T09:41:37.176Z,6.85
2022-08-03T09:44:04.007Z,5.00
2022-08-03T09:46:30.577Z,5.72
2022-08-03T09:49:11.731Z,6.73
2022-08-03T09:52:31.459Z,6.63
2022-08-03T09:54:28.032Z,5.53
2022-08-03T09:56:56.497Z,5.22
2022-08-03T09:59:26.028Z,6.45
2022-08-03T10:01:53.537Z,5.33
2022-08-03T10:04:20.329Z,5.10
2022-08-03T10:07:02.930Z,5.00
2022-08-03T10:09:29.607Z,5.70
2022-08-03T10:11:56.828Z,5.47
2022-08-03T10:14:23.954Z,6.67
2022-08-03T10:16:50.529Z,7.68
2022-08-03T10:19:17.334Z,5.85
2022-08-03T10:21:50.091Z,7.60
2022-08-03T10:24:20.199Z,5.15
2022-08-03T10:26:50.286Z,5.73
2022-08-03T10:29:22.378Z,5.68
2022-08-03T10:31:57.646Z,4.88
2022-08-03T10:34:27.318Z,6.07
2022-08-03T10:36:59.044Z,6.65
2022-08-03T10:39:29.397Z,6.10
2022-08-03T10:41:57.906Z,5.65
2022-08-03T10:44:29.426Z,6.53
2022-08-03T10:46:56.959Z,5.10
2022-08-03T10:49:33.547Z,6.95
2022-08-03T10:52:13.040Z,5.93
2022-08-03T10:54:50.800Z,6.05
2022-08-03T10:57:49.793Z,8.88
2022-08-03T11:00:17.663Z,7.43
2022-08-03T11:03:11.353Z,5.65
2022-08-03T11:05:40.410Z,5.87
2022-08-03T11:08:27.352Z,6.07
2022-08-03T11:11:26.330Z,6.45
2022-08-03T11:13:58.404Z,6.47
2022-08-03T11:16:27.488Z,5.80
2022-08-03T11:18:58.932Z,5.67
2022-08-03T11:21:54.562Z,5.13
2022-08-03T11:24:58.454Z,5.70
2022-08-03T11:27:30.924Z,5.50
2022-08-03T11:30:00.064Z,5.20
2022-08-03T11:32:58.085Z,6.57
2022-08-03T11:35:26.326Z,5.70
2022-08-03T11:38:07.155Z,4.70
2022-08-03T11:40:39.149Z,5.63
2022-08-03T11:43:09.094Z,4.78
2022-08-03T11:45:36.778Z,5.80
2022-08-03T11:48:16.540Z,6.55
2022-08-03T11:50:43.874Z,5.95
2022-08-03T11:53:14.688Z,7.50
2022-08-03T11:55:41.746Z,4.75
2022-08-03T11:59:17.274Z,4.80
2022-08-03T12:01:05.443Z,6.05
2022-08-03T12:03:34.240Z,5.43
2022-08-03T12:06:01.611Z,5.68
2022-08-03T12:08:32.025Z,5.50
2022-08-03T12:11:00.702Z,4.93
2022-08-03T12:14:10.468Z,5.18
2022-08-03T12:16:25.167Z,7.40
2022-08-03T12:18:55.503Z,6.18
2022-08-03T12:21:22.063Z,5.95
2022-08-03T12:23:48.626Z,6.20
2022-08-03T12:26:15.172Z,5.97
2022-08-03T12:28:49.975Z,5.35
2022-08-03T12:31:16.722Z,4.97
2022-08-03T12:34:02.054Z,6.15
2022-08-03T12:36:30.053Z,4.77
2022-08-03T12:38:58.021Z,5.68
2022-08-03T12:41:29.694Z,6.45
2022-08-03T12:43:57.915Z,5.93
2022-08-03T12:46:30.544Z,5.05
2022-08-03T12:49:03.230Z,5.10
2022-08-03T12:51:32.254Z,5.28
2022-08-03T12:54:24.786Z,4.80
2022-08-03T12:56:58.611Z,5.40
2022-08-03T12:59:32.170Z,5.80
2022-08-03T13:02:04.548Z,6.20
2022-08-03T13:04:36.467Z,6.55
2022-08-03T13:07:04.807Z,5.85
2022-08-03T13:09:42.121Z,5.38
2022-08-03T13:12:10.598Z,4.53
2022-08-03T13:14:38.543Z,5.10
2022-08-03T13:17:27.274Z,5.97
2022-08-03T13:19:54.216Z,5.25
2022-08-03T13:22:22.499Z,6.10
2022-08-03T13:24:51.368Z,6.32
2022-08-03T13:28:00.055Z,6.87
2022-08-03T13:30:08.723Z,5.32
2022-08-03T13:32:35.589Z,5.05
2022-08-03T13:35:02.560Z,5.22
2022-08-03T13:37:29.256Z,5.53
2022-08-03T13:39:59.027Z,6.30
2022-08-03T13:42:28.285Z,4.93
2022-08-03T13:44:54.869Z,6.25
2022-08-03T13:47:23.029Z,4.72
2022-08-03T13:49:56.949Z,4.57
2022-08-03T13:52:28.833Z,5.20
2022-08-03T13:54:55.440Z,4.95
2022-08-03T13:58:02.822Z,5.43
2022-08-03T14:00:09.843Z,4.63
2022-08-03T14:02:37.950Z,6.00
2022-08-03T14:05:05.179Z,5.57
2022-08-03T14:07:31.754Z,7.30
2022-08-03T14:09:58.332Z,6.03
2022-08-03T14:12:24.989Z,5.55
2022-08-03T14:14:51.511Z,4.60
2022-08-03T14:17:18.412Z,4.43
2022-08-03T14:19:53.403Z,16.52
2022-08-03T14:22:20.848Z,5.13
2022-08-03T14:24:47.628Z,5.45
2022-08-03T14:27:15.955Z,5.15
2022-08-03T14:29:42.534Z,4.60
2022-08-03T14:32:12.570Z,5.60
2022-08-03T14:34:39.913Z,6.80
2022-08-03T14:37:08.347Z,4.47
2022-08-03T14:42:21.799Z,4.83
2022-08-03T14:44:48.441Z,4.82
2022-08-03T14:47:15.073Z,4.68
2022-08-03T14:50:36.115Z,5.82
2022-08-03T14:52:29.708Z,5.07
2022-08-03T14:54:56.423Z,5.13
2022-08-03T14:57:22.983Z,4.60
2022-08-03T14:59:56.174Z,4.50
2022-08-03T15:02:48.309Z,5.47
2022-08-03T15:05:21.064Z,4.63
2022-08-03T15:07:49.006Z,7.80
2022-08-03T15:10:15.568Z,7.15
2022-08-03T15:12:42.168Z,6.90
2022-08-03T15:15:09.495Z,6.55
2022-08-03T15:17:36.062Z,5.80
2022-08-03T15:20:27.731Z,4.47
2022-08-03T15:22:56.411Z,5.25
2022-08-03T15:26:03.759Z,5.65
2022-08-03T15:28:09.738Z,6.03
2022-08-03T15:30:36.368Z,4.75
2022-08-03T15:33:03.304Z,4.60
2022-08-03T15:35:29.918Z,7.82
2022-08-03T15:37:59.859Z,4.85
2022-08-03T15:40:26.439Z,6.13
2022-08-03T15:42:53.019Z,6.90
2022-08-03T15:45:20.494Z,4.90
2022-08-03T15:47:47.374Z,5.53
2022-08-03T15:50:20.563Z,5.00
2022-08-03T15:52:47.782Z,5.38
2022-08-03T15:55:17.318Z,4.70
2022-08-03T15:59:04.664Z,6.07
2022-08-03T16:00:33.893Z,6.40
2022-08-03T16:03:00.768Z,5.45
2022-08-03T16:05:27.435Z,4.90
2022-08-03T16:08:02.772Z,8.13
2022-08-03T16:10:42.333Z,7.13
2022-08-03T16:13:08.970Z,5.40
2022-08-03T16:15:38.447Z,5.75
2022-08-03T16:18:05.511Z,4.68
2022-08-03T16:20:35.189Z,5.85
2022-08-03T16:23:22.150Z,4.67
2022-08-03T16:25:50.260Z,4.55
2022-08-03T16:28:29.532Z,6.07
2022-08-03T16:30:56.148Z,5.28
2022-08-03T16:33:38.502Z,6.05
2022-08-03T16:36:05.592Z,8.03
2022-08-03T16:38:32.139Z,6.00
2022-08-03T16:41:00.040Z,7.38
2022-08-03T16:43:26.599Z,5.70
2022-08-03T16:45:53.146Z,5.65
2022-08-03T16:48:20.204Z,5.10
2022-08-03T16:50:46.933Z,5.40
2022-08-03T16:53:16.693Z,6.82
2022-08-03T16:55:53.989Z,5.75
2022-08-03T16:58:34.569Z,7.13
2022-08-03T17:01:21.195Z,5.60
2022-08-03T17:04:02.282Z,5.82
2022-08-03T17:06:34.552Z,5.75
2022-08-03T17:09:01.967Z,4.93
2022-08-03T17:11:30.075Z,5.22
2022-08-03T17:14:01.043Z,4.70
2022-08-03T17:16:30.054Z,5.82
2022-08-03T17:18:58.302Z,7.32
2022-08-03T17:21:30.879Z,5.72
2022-08-03T17:24:12.713Z,5.40
2022-08-03T17:26:43.314Z,7.13
2022-08-03T17:29:13.175Z,6.05
2022-08-03T17:31:48.554Z,5.60
2022-08-03T17:34:16.500Z,8.70
2022-08-03T17:39:57.008Z,7.13
2022-08-03T17:42:31.239Z,5.75
2022-08-03T17:45:02.369Z,5.43
2022-08-03T17:47:41.835Z,7.00
2022-08-03T17:50:24.585Z,5.15
2022-08-03T17:53:01.279Z,5.07
2022-08-03T17:55:57.871Z,6.82
2022-08-03T17:58:41.512Z,6.05
2022-08-03T18:01:57.861Z,5.78
2022-08-03T18:04:10.666Z,5.60
2022-08-03T18:06:39.821Z,6.60
2022-08-03T18:10:04.730Z,6.32
2022-08-03T18:12:18.494Z,7.03
2022-08-03T18:14:57.129Z,7.28
2022-08-03T18:17:55.583Z,7.80
2022-08-03T18:20:34.049Z,6.30
2022-08-03T18:23:06.296Z,5.22
2022-08-03T18:25:42.694Z,8.23
2022-08-03T18:28:14.175Z,6.82
2022-08-03T18:30:53.211Z,7.28
2022-08-03T18:34:16.594Z,7.97
2022-08-03T18:36:17.523Z,5.85
2022-08-03T18:38:46.487Z,7.95
2022-08-03T18:41:16.579Z,5.53
2022-08-03T18:44:06.583Z,7.88
2022-08-03T18:46:45.252Z,9.03
2022-08-03T18:49:22.662Z,12.23
2022-08-03T18:51:58.359Z,6.95
2022-08-03T18:54:51.084Z,10.30
2022-08-03T18:57:22.284Z,12.70
2022-08-03T19:00:02.878Z,9.23
2022-08-03T19:02:36.037Z,9.75
2022-08-03T19:05:07.199Z,10.50
2022-08-03T19:07:36.252Z,10.15
2022-08-03T19:10:05.975Z,11.57
2022-08-03T19:12:39.951Z,12.23
2022-08-03T19:15:12.510Z,11.38
2022-08-03T19:17:41.992Z,10.60
2022-08-03T19:20:21.528Z,9.95
2022-08-03T19:22:50.834Z,10.48
2022-08-03T19:25:18.106Z,13.80
2022-08-03T19:27:45.880Z,10.48
2022-08-03T19:30:26.007Z,9.48
2022-08-03T19:32:54.222Z,8.70
2022-08-03T19:35:51.115Z,8.32
2022-08-03T19:38:09.402Z,8.43
2022-08-03T19:40:42.095Z,8.93
2022-08-03T19:43:12.716Z,10.48
2022-08-03T19:46:05.410Z,8.75
2022-08-03T19:48:33.340Z,11.75
2022-08-03T19:51:03.025Z,11.20
2022-08-03T19:53:45.179Z,6.60
2022-08-03T19:56:13.027Z,10.27
2022-08-03T19:58:42.518Z,11.20
2022-08-03T20:01:19.321Z,11.60
2022-08-03T20:03:47.415Z,11.77
2022-08-03T20:06:17.817Z,9.73
2022-08-03T20:08:45.338Z,11.63
2022-08-03T20:11:17.992Z,11.93
2022-08-03T20:13:46.297Z,9.45
2022-08-03T20:16:15.186Z,9.48
2022-08-03T20:18:42.849Z,8.77
2022-08-03T20:21:14.773Z,10.17
2022-08-03T20:24:01.957Z,9.30
2022-08-03T20:26:31.539Z,10.60
2022-08-03T20:29:09.141Z,7.88
2022-08-03T20:31:37.265Z,12.00
2022-08-03T20:34:05.138Z,11.80
2022-08-03T20:36:31.786Z,9.60
2022-08-03T20:39:00.382Z,6.53
2022-08-03T20:41:27.029Z,7.70
2022-08-03T20:43:54.066Z,10.63
2022-08-03T20:46:31.133Z,10.55
2022-08-03T20:49:05.711Z,7.73
2022-08-03T20:51:49.836Z,9.20
2022-08-03T20:54:30.826Z,10.55
2022-08-03T20:56:59.246Z,6.20
2022-08-03T20:59:26.464Z,7.55
2022-08-03T21:01:53.018Z,6.72
2022-08-03T21:04:21.409Z,5.83
2022-08-03T21:06:54.082Z,7.83
2022-08-03T21:09:40.054Z,9.27
2022-08-03T21:12:15.314Z,8.43
2022-08-03T21:14:52.276Z,7.60
2022-08-03T21:17:39.183Z,11.30
2022-08-03T21:20:09.460Z,9.50
2022-08-03T21:22:37.710Z,7.83
2022-08-03T21:25:08.039Z,7.85
2022-08-03T21:27:35.911Z,9.82
2022-08-03T21:30:05.530Z,11.48
2022-08-03T21:32:33.358Z,11.82
2022-08-03T21:35:00.871Z,9.30
2022-08-03T21:37:28.954Z,8.20
2022-08-03T21:39:56.445Z,7.22
2022-08-03T21:42:24.444Z,8.07
2022-08-03T21:44:51.170Z,7.78
2022-08-03T21:47:18.580Z,7.05
2022-08-03T21:50:05.756Z,5.83
2022-08-03T21:52:41.896Z,6.10
2022-08-03T21:55:18.296Z,6.03
2022-08-03T21:57:52.026Z,5.88
2022-08-03T22:00:21.298Z,7.18
2022-08-03T22:02:54.628Z,7.88
2022-08-03T22:05:29.050Z,8.38
2022-08-03T22:08:10.765Z,6.37
2022-08-03T22:10:37.759Z,7.15
2022-08-03T22:13:06.031Z,8.45
2022-08-03T22:15:33.131Z,7.50
2022-08-03T22:18:01.870Z,8.13
2022-08-03T22:20:28.424Z,8.43
2022-08-03T22:22:59.157Z,7.17
2022-08-03T22:25:28.642Z,7.32
2022-08-03T22:27:56.316Z,7.88
2022-08-03T22:30:24.291Z,8.27
2022-08-03T22:32:53.931Z,6.38
2022-08-03T22:35:23.758Z,6.17
2022-08-03T22:37:53.558Z,6.17
2022-08-03T22:40:20.153Z,7.85
2022-08-03T22:42:47.397Z,5.90
2022-08-03T22:46:06.228Z,8.32
2022-08-03T22:48:07.193Z,7.82
2022-08-03T22:50:34.457Z,8.47
2022-08-03T22:53:01.447Z,6.50
2022-08-03T22:55:28.106Z,6.60
2022-08-03T22:57:55.606Z,6.53
2022-08-03T23:00:24.056Z,6.38
2022-08-03T23:02:53.423Z,6.50
2022-08-03T23:06:00.771Z,7.22
2022-08-03T23:08:14.268Z,6.60
2022-08-03T23:10:46.716Z,5.88
2022-08-03T23:13:16.262Z,5.78
2022-08-03T23:15:49.421Z,7.97
2022-08-03T23:18:17.162Z,7.75
2022-08-03T23:20:45.759Z,8.50
2022-08-03T23:23:16.627Z,8.63
2022-08-03T23:25:46.923Z,6.82
2022-08-03T23:28:15.403Z,6.38
2022-08-03T23:30:42.602Z,6.85
2022-08-03T23:33:11.273Z,6.60
2022-08-03T23:36:20.205Z,7.60
2022-08-03T23:38:29.178Z,7.23
2022-08-03T23:40:57.731Z,6.57
2022-08-03T23:43:47.649Z,6.93
2022-08-03T23:46:14.101Z,8.45
2022-08-03T23:48:44.842Z,8.93
2022-08-03T23:51:23.389Z,7.18
2022-08-03T23:54:01.929Z,8.70
2022-08-03T23:56:39.294Z,7.75
2022-08-03T23:59:14.007Z,7.05
